Time;durP1;ratioP1;P1;durP2;ratioP2;P2;SDS_P1;SDS_P2;PMS_P1;PMS_P2;Temp;Humidity;BMP_temperature;BMP_pressure;BME280_temperature;BME280_humidity;BME280_pressure;Samples;Min_cycle;Max_cycle;Signal;HPM_P1;HPM_P2
2022/12/14 00:00:47;;;;;;;53.90;33.90;;;-3.90;99.90;;;;;;5129230;27;20065;-40
2022/12/14 00:03:14;;;;;;;53.97;32.58;;;-3.90;99.90;;;;;;5119138;27;20051;-41
2022/12/14 00:05:40;;;;;;;54.17;32.85;;;-3.90;99.90;;;;;;5117676;27;20078;-40
2022/12/14 00:08:07;;;;;;;55.78;34.25;;;-3.90;99.90;;;;;;5121905;27;20567;-40
2022/12/14 00:10:33;;;;;;;50.53;32.25;;;-3.90;99.90;;;;;;5125296;27;20192;-43
2022/12/14 00:13:00;;;;;;;53.33;33.63;;;-3.90;99.90;;;;;;5122047;27;20110;-42
2022/12/14 00:15:25;;;;;;;56.90;30.60;;;-4.00;99.90;;;;;;5118066;27;20389;-41
2022/12/14 00:17:51;;;;;;;53.22;32.63;;;-4.00;99.90;;;;;;5137211;27;20051;-41
2022/12/14 00:20:17;;;;;;;56.95;33.88;;;-4.10;99.90;;;;;;5137469;27;20452;-40
2022/12/14 00:22:43;;;;;;;55.88;34.85;;;-4.00;99.90;;;;;;5118507;27;20099;-40
2022/12/14 00:25:09;;;;;;;53.88;33.08;;;-4.10;99.90;;;;;;5117374;27;20154;-42
2022/12/14 00:27:34;;;;;;;54.15;33.38;;;-4.10;99.90;;;;;;5117283;27;20043;-41
2022/12/14 00:30:00;;;;;;;52.13;33.30;;;-4.10;99.90;;;;;;5117338;27;20483;-45
2022/12/14 00:32:26;;;;;;;50.03;32.70;;;-4.10;99.90;;;;;;5123027;27;20066;-41
2022/12/14 00:34:52;;;;;;;50.90;31.40;;;-4.20;99.90;;;;;;5107232;27;20048;-42
2022/12/14 00:37:18;;;;;;;52.10;33.03;;;-4.20;99.90;;;;;;5121793;27;20042;-40
2022/12/14 00:39:43;;;;;;;56.28;35.13;;;-4.20;99.90;;;;;;5125484;27;20062;-40
2022/12/14 00:42:09;;;;;;;56.67;32.33;;;-4.30;99.90;;;;;;5102532;27;20039;-42
2022/12/14 00:44:34;;;;;;;55.05;31.27;;;-4.30;99.90;;;;;;5125960;27;20047;-43
2022/12/14 00:47:00;;;;;;;52.28;32.30;;;-4.40;99.90;;;;;;5117681;27;20039;-41
2022/12/14 00:49:26;;;;;;;59.72;33.08;;;-4.40;99.90;;;;;;5118070;27;20357;-42
2022/12/14 00:51:51;;;;;;;48.08;30.73;;;-4.40;99.90;;;;;;5115813;27;20569;-40
2022/12/14 00:54:17;;;;;;;54.30;32.95;;;-4.50;99.90;;;;;;5118395;27;20390;-42
2022/12/14 00:56:43;;;;;;;52.70;31.58;;;-4.60;99.90;;;;;;5117820;27;20040;-40
2022/12/14 00:59:08;;;;;;;55.88;32.28;;;-4.70;99.90;;;;;;5128590;27;20089;-42
2022/12/14 01:01:34;;;;;;;47.72;30.10;;;-4.60;99.90;;;;;;5118207;27;20114;-40
2022/12/14 01:04:18;;;;;;;55.10;31.85;;;-4.70;99.90;;;;;;5116787;27;20047;-42
2022/12/14 01:06:48;;;;;;;47.85;29.42;;;-4.70;99.90;;;;;;5117542;27;20493;-39
2022/12/14 01:09:15;;;;;;;50.08;29.02;;;-4.60;99.90;;;;;;5131979;27;20433;-41
2022/12/14 01:11:41;;;;;;;44.75;28.20;;;-4.70;99.90;;;;;;5115300;27;20043;-42
2022/12/14 01:14:07;;;;;;;51.80;31.10;;;-4.70;99.90;;;;;;5113964;27;20058;-40
2022/12/14 01:16:33;;;;;;;49.22;31.08;;;-4.70;99.90;;;;;;5138053;27;20145;-43
2022/12/14 01:19:00;;;;;;;49.40;30.15;;;-4.90;99.90;;;;;;5135918;27;20119;-44
2022/12/14 01:21:27;;;;;;;52.25;28.98;;;-4.90;99.90;;;;;;5124694;27;20092;-44
2022/12/14 01:23:57;;;;;;;50.78;30.10;;;-4.90;99.90;;;;;;5121411;27;20047;-40
2022/12/14 01:26:24;;;;;;;48.78;30.23;;;-5.00;99.90;;;;;;5116225;27;20104;-42
2022/12/14 01:28:54;;;;;;;46.47;28.35;;;-5.00;99.90;;;;;;5115466;27;20079;-40
2022/12/14 01:31:27;;;;;;;46.45;29.42;;;-5.10;99.90;;;;;;5097151;27;20043;-41
2022/12/14 01:33:52;;;;;;;47.97;28.92;;;-5.20;99.90;;;;;;5115859;27;20046;-47
2022/12/14 01:36:21;;;;;;;48.25;28.95;;;-5.30;99.90;;;;;;5126921;27;20043;-40
2022/12/14 01:38:51;;;;;;;48.83;29.05;;;-5.30;99.90;;;;;;5117505;27;20046;-40
2022/12/14 01:41:41;;;;;;;50.25;28.52;;;-5.40;99.90;;;;;;5115741;27;20222;-43
2022/12/14 01:44:06;;;;;;;46.75;29.80;;;-5.40;99.90;;;;;;5097241;27;20404;-43
2022/12/14 01:46:47;;;;;;;47.63;28.55;;;-5.50;99.90;;;;;;5115716;27;20039;-43
2022/12/14 01:49:15;;;;;;;48.85;28.23;;;-5.50;99.90;;;;;;5115528;27;20374;-40
2022/12/14 01:51:47;;;;;;;54.80;28.20;;;-5.60;99.90;;;;;;5119735;27;20095;-41
2022/12/14 01:54:14;;;;;;;46.38;28.02;;;-5.60;99.90;;;;;;5099995;27;20091;-40
2022/12/14 01:56:43;;;;;;;47.30;28.13;;;-5.60;99.90;;;;;;5116185;27;20043;-40
2022/12/14 01:59:17;;;;;;;50.53;27.73;;;-5.60;99.90;;;;;;5127707;27;20047;-39
2022/12/14 02:01:44;;;;;;;48.67;28.05;;;-5.70;99.90;;;;;;5129625;27;20051;-43
2022/12/14 02:04:13;;;;;;;48.90;29.40;;;-5.70;99.90;;;;;;5116179;27;20123;-40
2022/12/14 02:06:41;;;;;;;50.60;29.80;;;-5.70;99.90;;;;;;5136109;27;20055;-40
2022/12/14 02:09:15;;;;;;;54.90;31.20;;;-5.70;99.90;;;;;;5135531;27;20342;-41
2022/12/14 02:11:57;;;;;;;50.92;31.90;;;-5.70;99.90;;;;;;5118467;27;20043;-41
2022/12/14 02:14:23;;;;;;;55.88;31.85;;;-5.60;99.90;;;;;;5118706;27;20047;-40
2022/12/14 02:16:53;;;;;;;51.97;31.30;;;-5.70;99.90;;;;;;5117788;27;20385;-40
2022/12/14 02:19:19;;;;;;;56.80;31.63;;;-5.70;99.90;;;;;;5105041;27;20663;-40
2022/12/14 02:22:23;;;;;;;48.40;29.73;;;-5.80;99.90;;;;;;5127912;27;20047;-42
2022/12/14 02:24:48;;;;;;;54.90;30.03;;;-5.90;99.90;;;;;;5119611;27;20051;-40
2022/12/14 02:27:42;;;;;;;59.45;31.83;;;-5.90;99.90;;;;;;5136543;27;20447;-39
2022/12/14 02:30:18;;;;;;;54.25;32.47;;;-5.90;99.90;;;;;;5120239;27;20046;-40
2022/12/14 02:33:26;;;;;;;55.75;30.55;;;-5.90;99.90;;;;;;5128662;27;20085;-40
2022/12/14 02:36:19;;;;;;;52.53;31.60;;;-5.90;99.90;;;;;;5028517;28;20065;-42
2022/12/14 02:39:19;;;;;;;55.17;29.50;;;-5.90;99.90;;;;;;4999136;28;20641;-40
2022/12/14 02:42:14;;;;;;;47.33;27.60;;;-5.90;99.90;;;;;;5029063;28;20356;-40
2022/12/14 02:44:57;;;;;;;52.25;29.17;;;-5.90;99.90;;;;;;5029519;28;20167;-40
2022/12/14 02:47:28;;;;;;;51.30;29.58;;;-5.90;99.90;;;;;;5036035;28;20192;-39
2022/12/14 02:50:19;;;;;;;43.92;27.40;;;-6.00;99.90;;;;;;5032386;28;20046;-42
2022/12/14 02:53:22;;;;;;;48.65;27.63;;;-6.00;99.90;;;;;;5007437;28;20062;-41
2022/12/14 02:55:51;;;;;;;49.70;28.00;;;-5.90;99.90;;;;;;5033794;28;20220;-40
2022/12/14 02:58:25;;;;;;;54.47;27.88;;;-5.90;99.90;;;;;;5030907;28;20213;-41
2022/12/14 03:00:54;;;;;;;52.28;28.70;;;-5.80;99.90;;;;;;5023852;28;20122;-40
2022/12/14 03:03:20;;;;;;;46.92;26.02;;;-5.80;99.90;;;;;;5027279;28;20060;-40
2022/12/14 03:05:59;;;;;;;47.70;28.95;;;-5.80;99.90;;;;;;5025470;28;20287;-40
2022/12/14 03:08:28;;;;;;;43.85;27.15;;;-5.80;99.90;;;;;;5027013;28;20053;-41
2022/12/14 03:11:03;;;;;;;47.05;25.90;;;-5.80;99.90;;;;;;5008977;28;20076;-40
2022/12/14 03:13:39;;;;;;;47.25;27.70;;;-5.80;99.90;;;;;;5093874;27;20112;-44
2022/12/14 03:16:27;;;;;;;48.45;27.60;;;-5.70;99.90;;;;;;5137227;27;20038;-40
2022/12/14 03:19:14;;;;;;;48.88;29.55;;;-5.70;99.90;;;;;;5106495;27;20055;-41
2022/12/14 03:21:49;;;;;;;52.72;29.27;;;-5.60;99.90;;;;;;5118891;27;20043;-41
2022/12/14 03:24:20;;;;;;;47.88;26.90;;;-5.50;99.90;;;;;;5104730;27;20042;-41
2022/12/14 03:26:53;;;;;;;44.72;27.70;;;-5.50;99.90;;;;;;5126790;27;20035;-41
2022/12/14 03:29:37;;;;;;;53.22;29.77;;;-5.50;99.90;;;;;;5118224;27;20476;-41
2022/12/14 03:32:07;;;;;;;44.42;26.52;;;-5.40;99.90;;;;;;5120447;27;20515;-43
2022/12/14 03:34:41;;;;;;;50.70;26.98;;;-5.40;99.90;;;;;;5129367;27;20047;-41
2022/12/14 03:37:09;;;;;;;46.85;26.55;;;-5.40;99.90;;;;;;5132243;27;20040;-41
2022/12/14 03:39:37;;;;;;;47.25;28.45;;;-5.40;99.90;;;;;;5117602;27;20055;-42
2022/12/14 03:42:12;;;;;;;48.22;28.20;;;-5.40;99.90;;;;;;5131502;27;20039;-41
2022/12/14 03:45:02;;;;;;;43.92;26.02;;;-5.40;99.90;;;;;;5131660;27;20050;-43
2022/12/14 03:47:47;;;;;;;45.63;27.42;;;-5.40;99.90;;;;;;5118476;27;20583;-39
2022/12/14 03:50:18;;;;;;;44.65;25.52;;;-5.30;99.90;;;;;;5117239;27;20047;-40
2022/12/14 03:53:22;;;;;;;44.25;25.60;;;-5.40;99.90;;;;;;5117376;27;20122;-39
2022/12/14 03:56:09;;;;;;;43.38;25.80;;;-5.40;99.90;;;;;;5025619;28;20734;-39
2022/12/14 03:58:56;;;;;;;40.92;26.13;;;-5.50;99.90;;;;;;5013686;28;20512;-42
2022/12/14 04:01:25;;;;;;;44.55;26.13;;;-5.40;99.90;;;;;;5000101;28;20227;-40
2022/12/14 04:03:53;;;;;;;47.17;27.02;;;-5.50;99.90;;;;;;5033893;28;20057;-40
2022/12/14 04:06:24;;;;;;;47.00;27.05;;;-5.50;99.90;;;;;;5020178;28;20119;-41
2022/12/14 04:09:02;;;;;;;45.75;26.90;;;-5.50;99.90;;;;;;5000307;28;20077;-43
2022/12/14 04:20:30;;;;;;;47.50;27.25;;;-5.50;99.90;;;;;;5023186;28;20455;-44
2022/12/14 04:23:07;;;;;;;43.88;25.92;;;-5.60;99.90;;;;;;5013368;28;20049;-42
2022/12/14 04:31:18;;;;;;;45.40;26.45;;;-5.70;99.90;;;;;;5059362;27;20143;-40
2022/12/14 04:33:51;;;;;;;49.20;25.92;;;-5.80;99.90;;;;;;5098026;27;20050;-40
2022/12/14 04:36:32;;;;;;;47.08;26.08;;;-5.90;99.90;;;;;;5116691;27;20843;-42
2022/12/14 04:39:03;;;;;;;46.53;25.83;;;-6.00;99.90;;;;;;5115721;27;20134;-41
2022/12/14 04:41:35;;;;;;;52.20;30.20;;;-6.10;99.90;;;;;;5117213;27;20047;-41
2022/12/14 04:44:11;;;;;;;52.13;31.77;;;-6.20;99.90;;;;;;5117458;27;20035;-41
2022/12/14 04:46:39;;;;;;;46.47;28.75;;;-6.30;99.90;;;;;;5133402;27;20130;-40
2022/12/14 04:49:19;;;;;;;51.92;28.08;;;-6.40;99.90;;;;;;5118235;27;20073;-40
2022/12/14 04:51:51;;;;;;;48.50;27.13;;;-6.50;99.90;;;;;;5136245;27;20046;-41
2022/12/14 04:54:24;;;;;;;47.58;27.88;;;-6.60;99.90;;;;;;5118611;27;20043;-41
2022/12/14 04:57:14;;;;;;;47.75;29.00;;;-6.60;99.90;;;;;;5098514;27;20051;-42
2022/12/14 04:59:40;;;;;;;47.50;26.67;;;-6.60;99.90;;;;;;5115738;27;20126;-40
2022/12/14 05:02:28;;;;;;;46.75;27.83;;;-6.70;99.90;;;;;;5095430;27;20039;-41
2022/12/14 05:05:12;;;;;;;51.42;28.33;;;-6.70;99.90;;;;;;5096107;27;20047;-40
2022/12/14 05:07:56;;;;;;;50.92;27.88;;;-6.80;99.90;;;;;;5115297;27;20094;-40
2022/12/14 05:10:35;;;;;;;49.20;27.40;;;-6.80;99.90;;;;;;5125513;27;20361;-40
2022/12/14 05:13:13;;;;;;;50.50;28.90;;;-6.80;99.90;;;;;;5100017;27;20513;-40
2022/12/14 05:15:49;;;;;;;49.53;26.42;;;-6.80;99.90;;;;;;5097904;27;20047;-40
2022/12/14 05:18:15;;;;;;;47.95;25.80;;;-6.80;99.90;;;;;;5115775;27;20070;-40
2022/12/14 05:20:40;;;;;;;48.67;26.30;;;-6.80;99.90;;;;;;5115311;27;20069;-40
2022/12/14 05:23:06;;;;;;;54.85;29.45;;;-6.90;99.90;;;;;;5116033;27;20548;-40
2022/12/14 05:25:32;;;;;;;45.47;27.15;;;-6.80;99.90;;;;;;5115723;27;20395;-40
2022/12/14 05:27:58;;;;;;;52.17;27.63;;;-6.90;99.90;;;;;;5124881;27;20535;-39
2022/12/14 05:30:23;;;;;;;49.92;26.83;;;-6.80;99.90;;;;;;5132799;27;20076;-40
2022/12/14 05:32:49;;;;;;;47.70;26.75;;;-6.90;99.90;;;;;;5115195;27;20594;-40
2022/12/14 05:35:15;;;;;;;50.65;28.52;;;-6.90;99.90;;;;;;5131540;27;20106;-39
2022/12/14 05:37:41;;;;;;;46.22;25.83;;;-6.90;99.90;;;;;;5136011;27;20026;-40
2022/12/14 05:40:08;;;;;;;46.25;26.30;;;-6.80;99.90;;;;;;5134968;27;20532;-40
2022/12/14 05:42:34;;;;;;;47.28;28.27;;;-6.80;99.90;;;;;;5127338;27;20035;-40
2022/12/14 05:44:59;;;;;;;51.45;27.98;;;-6.80;99.90;;;;;;5110708;27;20582;-42
2022/12/14 05:47:26;;;;;;;50.10;26.33;;;-6.70;99.90;;;;;;5115880;27;20043;-40
2022/12/14 05:49:52;;;;;;;54.30;26.20;;;-6.70;99.90;;;;;;5130403;27;20571;-40
2022/12/14 05:52:18;;;;;;;49.95;26.30;;;-6.70;99.90;;;;;;5125539;27;20080;-40
2022/12/14 05:54:43;;;;;;;45.40;26.33;;;-6.70;99.90;;;;;;5117079;27;20042;-39
2022/12/14 05:57:09;;;;;;;49.83;29.15;;;-6.70;99.90;;;;;;5115456;27;20104;-40
2022/12/14 05:59:35;;;;;;;46.45;26.33;;;-6.80;99.90;;;;;;5128987;27;20472;-40
2022/12/14 06:02:01;;;;;;;47.60;27.10;;;-6.80;99.90;;;;;;5115888;27;20465;-41
2022/12/14 06:04:26;;;;;;;46.53;26.23;;;-6.80;99.90;;;;;;5116249;27;20043;-42
2022/12/14 06:06:52;;;;;;;51.97;26.60;;;-6.90;99.90;;;;;;5115776;27;20039;-41
2022/12/14 06:09:18;;;;;;;47.90;25.23;;;-7.00;99.90;;;;;;5116386;27;20384;-39
2022/12/14 06:11:45;;;;;;;49.95;26.52;;;-7.00;99.90;;;;;;5131279;27;20449;-39
2022/12/14 06:14:12;;;;;;;53.38;27.98;;;-7.00;99.90;;;;;;5117107;27;20041;-41
2022/12/14 06:16:42;;;;;;;51.75;26.77;;;-7.00;99.90;;;;;;5118371;27;20054;-41
2022/12/14 06:19:09;;;;;;;48.70;26.65;;;-7.00;99.90;;;;;;5118709;27;20508;-40
2022/12/14 06:21:37;;;;;;;45.72;24.35;;;-7.00;99.90;;;;;;5096386;28;20039;-40
2022/12/14 06:24:03;;;;;;;48.92;25.80;;;-7.00;99.90;;;;;;5128956;27;20086;-44
2022/12/14 06:26:30;;;;;;;46.63;26.27;;;-7.00;99.90;;;;;;5097089;28;20122;-41
2022/12/14 06:28:57;;;;;;;51.58;28.42;;;-7.00;99.90;;;;;;5132843;27;20508;-39
2022/12/14 06:31:29;;;;;;;48.83;27.33;;;-7.00;99.90;;;;;;5135119;27;20886;-39
2022/12/14 06:33:58;;;;;;;50.30;27.83;;;-7.00;99.90;;;;;;5135448;27;20039;-40
2022/12/14 06:36:26;;;;;;;52.05;26.15;;;-7.00;99.90;;;;;;5117346;27;20038;-40
2022/12/14 06:38:54;;;;;;;45.63;25.48;;;-6.90;99.90;;;;;;5115272;27;20050;-39
2022/12/14 06:41:22;;;;;;;49.97;27.40;;;-7.00;99.90;;;;;;5127821;27;20560;-44
2022/12/14 06:43:49;;;;;;;48.95;25.70;;;-7.00;99.90;;;;;;5122130;27;20496;-40
2022/12/14 06:46:17;;;;;;;45.25;25.90;;;-7.00;99.90;;;;;;5136009;27;20047;-39
2022/12/14 06:48:47;;;;;;;49.15;26.05;;;-7.00;99.90;;;;;;5128269;27;20083;-40
2022/12/14 06:51:13;;;;;;;51.85;27.67;;;-7.00;99.90;;;;;;5114498;27;20505;-41
2022/12/14 06:53:38;;;;;;;47.67;25.75;;;-7.00;99.90;;;;;;5122717;27;20072;-40
2022/12/14 06:56:12;;;;;;;46.35;25.40;;;-7.00;99.90;;;;;;5115760;27;20057;-40
2022/12/14 06:58:38;;;;;;;51.45;26.98;;;-7.00;99.90;;;;;;5121253;27;20045;-40
2022/12/14 07:01:09;;;;;;;46.83;24.80;;;-7.00;99.90;;;;;;5134739;27;20392;-41
2022/12/14 07:03:36;;;;;;;45.20;25.90;;;-7.10;99.90;;;;;;5139104;27;20089;-41
2022/12/14 07:06:02;;;;;;;46.38;25.67;;;-7.10;99.90;;;;;;5120621;27;20522;-41
2022/12/14 07:08:30;;;;;;;47.42;25.23;;;-7.10;99.90;;;;;;5139476;27;20517;-40
2022/12/14 07:11:00;;;;;;;46.58;26.67;;;-7.10;99.90;;;;;;5125417;27;20119;-40
2022/12/14 07:13:26;;;;;;;47.30;26.08;;;-7.10;99.90;;;;;;5121128;27;20043;-39
2022/12/14 07:15:59;;;;;;;43.65;24.58;;;-7.10;99.90;;;;;;5118717;27;20069;-40
2022/12/14 07:18:26;;;;;;;36.63;20.95;;;-7.00;99.90;;;;;;5129085;27;20042;-41
2022/12/14 07:20:56;;;;;;;47.40;25.38;;;-7.00;99.90;;;;;;5138743;27;20110;-41
2022/12/14 07:23:21;;;;;;;46.47;24.98;;;-6.90;99.90;;;;;;5138896;27;20199;-40
2022/12/14 07:25:47;;;;;;;51.15;26.48;;;-6.90;99.90;;;;;;5115591;27;20142;-40
2022/12/14 07:28:12;;;;;;;50.15;27.05;;;-6.90;99.90;;;;;;5117706;27;20047;-41
2022/12/14 07:30:38;;;;;;;46.78;26.85;;;-6.90;99.90;;;;;;5121423;27;20087;-39
2022/12/14 07:33:04;;;;;;;44.83;24.30;;;-7.00;99.90;;;;;;5128483;27;20079;-39
2022/12/14 07:35:29;;;;;;;42.10;24.33;;;-7.00;99.90;;;;;;5136555;27;20496;-41
2022/12/14 07:37:55;;;;;;;44.33;25.45;;;-7.00;99.90;;;;;;5138798;27;20050;-40
2022/12/14 07:40:21;;;;;;;46.45;25.77;;;-7.00;99.90;;;;;;5137383;27;20051;-41
2022/12/14 07:42:49;;;;;;;48.38;25.33;;;-7.00;99.90;;;;;;5109226;27;20530;-40
2022/12/14 07:45:15;;;;;;;51.08;24.80;;;-7.00;99.90;;;;;;5136099;27;20493;-40
2022/12/14 07:47:41;;;;;;;42.50;23.77;;;-7.00;99.90;;;;;;5127536;27;20035;-40
2022/12/14 07:50:07;;;;;;;44.47;24.88;;;-7.00;99.90;;;;;;5117273;27;20118;-40
2022/12/14 07:52:33;;;;;;;43.85;23.88;;;-7.00;99.90;;;;;;5125827;27;20499;-41
2022/12/14 07:54:58;;;;;;;44.03;24.13;;;-7.00;99.90;;;;;;5120886;27;20083;-40
2022/12/14 07:57:24;;;;;;;46.40;26.30;;;-7.00;99.90;;;;;;5128091;27;20035;-40
2022/12/14 07:59:49;;;;;;;43.03;25.80;;;-6.90;99.90;;;;;;5120213;27;20085;-43
2022/12/14 08:02:15;;;;;;;51.55;29.10;;;-6.90;99.90;;;;;;5121304;27;20106;-42
2022/12/14 08:04:41;;;;;;;66.32;37.80;;;-7.00;99.90;;;;;;5122741;27;20431;-40
2022/12/14 08:07:07;;;;;;;44.00;27.13;;;-7.00;99.90;;;;;;5120666;27;20369;-40
2022/12/14 08:09:32;;;;;;;55.78;28.70;;;-7.00;99.90;;;;;;5117033;27;20350;-40
2022/12/14 08:11:58;;;;;;;50.97;29.73;;;-7.00;99.90;;;;;;5118157;27;20050;-39
2022/12/14 08:14:24;;;;;;;52.03;26.33;;;-7.00;99.90;;;;;;5116018;27;20453;-39
2022/12/14 08:16:49;;;;;;;50.55;28.27;;;-6.90;99.90;;;;;;5116636;27;20824;-39
2022/12/14 08:19:17;;;;;;;53.13;27.33;;;-6.90;99.90;;;;;;5118106;27;20043;-40
2022/12/14 08:21:44;;;;;;;47.85;26.23;;;-6.80;99.90;;;;;;5117747;27;20046;-39
2022/12/14 08:24:12;;;;;;;44.80;25.98;;;-6.80;99.90;;;;;;5125792;27;20039;-40
2022/12/14 08:26:38;;;;;;;45.42;25.95;;;-6.70;99.90;;;;;;5119653;27;20099;-40
2022/12/14 08:29:05;;;;;;;46.08;25.30;;;-6.70;99.90;;;;;;5132133;27;20074;-39
2022/12/14 08:31:31;;;;;;;50.55;26.55;;;-6.70;99.90;;;;;;5138391;27;20039;-41
2022/12/14 08:33:58;;;;;;;46.72;25.80;;;-6.70;99.90;;;;;;5111279;27;20253;-39
2022/12/14 08:36:33;;;;;;;44.97;25.58;;;-6.60;99.90;;;;;;5098936;27;20134;-40
2022/12/14 08:39:01;;;;;;;45.85;26.50;;;-6.60;99.90;;;;;;5122068;27;20035;-40
2022/12/14 08:41:28;;;;;;;46.13;26.48;;;-6.60;99.90;;;;;;5135136;27;20134;-40
2022/12/14 08:43:55;;;;;;;44.88;26.00;;;-6.50;99.90;;;;;;5122318;27;20046;-40
2022/12/14 08:46:22;;;;;;;45.78;26.95;;;-6.50;99.90;;;;;;5122605;27;20031;-40
2022/12/14 08:48:50;;;;;;;44.35;26.38;;;-6.40;99.90;;;;;;5123104;27;20507;-40
2022/12/14 08:51:16;;;;;;;46.50;25.27;;;-6.30;99.90;;;;;;5129291;27;20406;-42
2022/12/14 08:53:43;;;;;;;46.70;25.30;;;-6.40;99.90;;;;;;5121839;27;20122;-40
2022/12/14 08:56:11;;;;;;;47.10;26.10;;;-6.20;99.90;;;;;;5129314;27;20038;-40
2022/12/14 08:58:38;;;;;;;46.13;25.35;;;-6.20;99.90;;;;;;5116623;27;20764;-41
2022/12/14 09:01:06;;;;;;;50.67;25.55;;;-6.20;99.90;;;;;;5129127;27;20539;-40
2022/12/14 09:03:33;;;;;;;42.25;24.15;;;-6.10;99.90;;;;;;5119530;27;20070;-41
2022/12/14 09:06:03;;;;;;;43.33;25.05;;;-6.00;99.90;;;;;;5127901;27;20105;-42
2022/12/14 09:08:30;;;;;;;43.95;25.95;;;-6.00;99.90;;;;;;5136501;27;20050;-41
2022/12/14 09:10:56;;;;;;;47.83;27.33;;;-5.90;99.90;;;;;;5137626;27;20093;-42
2022/12/14 09:13:21;;;;;;;48.30;25.90;;;-5.80;99.90;;;;;;5125604;27;20122;-42
2022/12/14 09:16:02;;;;;;;45.03;24.98;;;-5.80;99.90;;;;;;5133981;27;20366;-41
2022/12/14 09:18:29;;;;;;;49.88;27.00;;;-5.70;99.90;;;;;;5110673;27;20042;-40
2022/12/14 09:20:55;;;;;;;43.28;26.08;;;-5.70;99.90;;;;;;5133563;27;20180;-40
2022/12/14 09:23:22;;;;;;;43.22;24.73;;;-5.70;99.90;;;;;;5098781;27;20051;-42
2022/12/14 09:26:02;;;;;;;42.63;26.02;;;-5.60;99.90;;;;;;5117950;27;20042;-39
2022/12/14 09:28:28;;;;;;;48.28;26.17;;;-5.60;99.90;;;;;;5099030;27;20639;-40
2022/12/14 09:30:55;;;;;;;49.45;26.90;;;-5.50;99.90;;;;;;5116223;27;20055;-40
2022/12/14 09:33:21;;;;;;;44.83;26.65;;;-5.50;99.90;;;;;;5117598;27;20043;-42
2022/12/14 09:35:47;;;;;;;45.85;25.27;;;-5.40;99.90;;;;;;5117194;27;20053;-40
2022/12/14 09:38:13;;;;;;;45.65;25.02;;;-5.40;99.90;;;;;;5117388;27;20385;-40
2022/12/14 09:40:44;;;;;;;44.53;25.08;;;-5.30;99.90;;;;;;5116166;27;20053;-39
2022/12/14 09:43:26;;;;;;;44.20;24.45;;;-5.30;99.90;;;;;;5098151;27;20122;-40
2022/12/14 09:45:59;;;;;;;49.08;28.42;;;-5.30;99.90;;;;;;5116478;27;20123;-40
2022/12/14 09:48:25;;;;;;;45.45;24.67;;;-5.30;99.90;;;;;;5117034;27;20489;-39
2022/12/14 09:50:52;;;;;;;45.45;26.13;;;-5.20;99.90;;;;;;5123451;27;20409;-41
2022/12/14 09:53:20;;;;;;;47.42;27.30;;;-5.20;99.90;;;;;;5112686;27;20043;-39
2022/12/14 09:55:56;;;;;;;46.40;26.33;;;-5.20;99.90;;;;;;5121374;27;20121;-40
2022/12/14 09:58:28;;;;;;;50.20;25.83;;;-5.10;99.90;;;;;;5112189;27;20489;-42
2022/12/14 10:00:57;;;;;;;47.40;27.70;;;-5.10;99.90;;;;;;5109102;27;20049;-39
2022/12/14 10:04:01;;;;;;;51.53;26.73;;;-5.10;99.90;;;;;;5088971;27;20056;-40
2022/12/14 10:06:51;;;;;;;44.55;23.92;;;-5.00;99.90;;;;;;5111148;27;21089;-40
2022/12/14 10:09:42;;;;;;;45.60;26.55;;;-4.90;99.90;;;;;;5090979;27;20599;-42
2022/12/14 10:12:19;;;;;;;59.00;32.35;;;-4.80;99.90;;;;;;5117011;27;20445;-40
2022/12/14 10:15:18;;;;;;;58.85;33.95;;;-4.80;99.90;;;;;;5116232;27;20075;-39
2022/12/14 10:18:05;;;;;;;48.22;28.88;;;-4.80;99.90;;;;;;5108818;27;20054;-40
2022/12/14 10:20:36;;;;;;;46.97;27.27;;;-4.70;99.90;;;;;;5113874;27;20070;-41
2022/12/14 10:23:03;;;;;;;45.33;26.40;;;-4.70;99.90;;;;;;5113805;27;20078;-40
2022/12/14 10:25:31;;;;;;;43.70;27.48;;;-4.70;99.90;;;;;;5115657;27;20092;-42
2022/12/14 10:28:06;;;;;;;38.78;23.45;;;-4.60;99.90;;;;;;5093981;27;20047;-40
2022/12/14 10:30:34;;;;;;;45.15;23.05;;;-4.50;99.90;;;;;;5112347;27;20077;-40
2022/12/14 10:33:14;;;;;;;43.80;24.48;;;-4.50;99.90;;;;;;5112184;27;20047;-42
2022/12/14 10:35:50;;;;;;;40.95;24.42;;;-4.40;99.90;;;;;;5112600;27;20151;-40
2022/12/14 10:38:32;;;;;;;39.75;23.67;;;-4.40;99.90;;;;;;5115276;27;20032;-42
2022/12/14 10:41:38;;;;;;;45.92;27.48;;;-4.40;99.90;;;;;;5118703;27;20047;-40
2022/12/14 10:44:33;;;;;;;41.53;24.60;;;-4.30;99.90;;;;;;5038387;28;20072;-43
2022/12/14 10:47:12;;;;;;;35.45;20.48;;;-4.30;99.90;;;;;;5019469;28;20049;-42
2022/12/14 10:50:00;;;;;;;36.40;21.88;;;-4.30;99.90;;;;;;5040768;28;20439;-40
2022/12/14 10:52:32;;;;;;;33.72;21.75;;;-4.20;99.90;;;;;;5050135;28;20144;-40
2022/12/14 10:55:02;;;;;;;36.90;21.10;;;-4.10;99.90;;;;;;5055355;28;20211;-40
2022/12/14 10:57:27;;;;;;;39.22;22.10;;;-4.10;99.90;;;;;;5056125;28;20063;-41
2022/12/14 10:59:54;;;;;;;40.65;23.90;;;-4.00;99.90;;;;;;5054483;28;20569;-40
2022/12/14 11:02:26;;;;;;;43.72;24.60;;;-4.00;99.90;;;;;;5038401;28;20051;-41
2022/12/14 11:04:55;;;;;;;38.85;21.73;;;-4.00;99.90;;;;;;5042539;28;20051;-41
2022/12/14 11:07:24;;;;;;;39.25;23.75;;;-3.90;99.90;;;;;;5038295;28;20567;-41
2022/12/14 11:09:50;;;;;;;44.05;23.85;;;-3.90;99.90;;;;;;5054693;28;20168;-41
2022/12/14 11:12:25;;;;;;;45.80;28.73;;;-3.80;99.90;;;;;;5046811;28;20048;-42
2022/12/14 11:15:05;;;;;;;52.33;32.03;;;-3.80;99.90;;;;;;5019118;28;20060;-41
2022/12/14 11:17:39;;;;;;;41.10;24.90;;;-3.70;99.90;;;;;;5047720;28;20069;-41
2022/12/14 11:20:08;;;;;;;39.10;23.58;;;-3.70;99.90;;;;;;5069159;27;20055;-40
2022/12/14 11:22:55;;;;;;;37.10;21.42;;;-3.70;99.90;;;;;;5118900;27;20465;-40
2022/12/14 11:25:42;;;;;;;35.47;20.33;;;-3.60;99.90;;;;;;5084008;27;20521;-41
2022/12/14 11:28:38;;;;;;;34.70;19.35;;;-3.60;99.90;;;;;;5128827;27;20615;-41
2022/12/14 11:31:35;;;;;;;35.35;21.95;;;-3.50;99.90;;;;;;5140239;27;20062;-41
2022/12/14 11:34:02;;;;;;;37.65;22.30;;;-3.50;99.90;;;;;;5119846;27;20410;-43
2022/12/14 11:36:32;;;;;;;41.60;24.88;;;-3.40;99.90;;;;;;5140620;27;20142;-41
2022/12/14 11:39:02;;;;;;;37.03;21.48;;;-3.50;99.90;;;;;;5126030;27;20039;-40
2022/12/14 11:41:37;;;;;;;40.97;22.25;;;-3.40;99.90;;;;;;5140778;27;20053;-43
2022/12/14 11:44:15;;;;;;;38.97;21.55;;;-3.30;99.90;;;;;;5140066;27;20050;-42
2022/12/14 11:46:59;;;;;;;33.88;19.10;;;-3.30;99.90;;;;;;5135768;27;20373;-43
2022/12/14 11:49:35;;;;;;;33.67;19.20;;;-3.30;99.90;;;;;;5130281;27;20046;-40
2022/12/14 11:52:03;;;;;;;36.60;22.67;;;-3.20;99.90;;;;;;5126577;27;20053;-40
2022/12/14 11:54:37;;;;;;;33.55;21.23;;;-3.20;99.90;;;;;;5115917;27;20510;-41
2022/12/14 11:57:12;;;;;;;32.80;21.38;;;-3.20;99.90;;;;;;5138566;27;20043;-41
2022/12/14 11:59:45;;;;;;;32.60;20.50;;;-3.10;99.90;;;;;;5124075;27;20035;-42
2022/12/14 12:02:29;;;;;;;;;;;-3.10;99.90;;;;;;5130546;27;20046;-40
2022/12/14 12:05:06;;;;;;;35.33;19.80;;;-3.10;99.90;;;;;;5120143;27;19919;-43
2022/12/14 12:07:38;;;;;;;33.53;21.13;;;-3.10;99.90;;;;;;5118843;27;20156;-41
2022/12/14 12:10:15;;;;;;;31.08;20.05;;;-3.00;99.90;;;;;;5119671;27;20043;-40
2022/12/14 12:12:56;;;;;;;32.42;18.80;;;-3.00;99.90;;;;;;5119224;27;20054;-41
2022/12/14 12:15:29;;;;;;;34.40;21.25;;;-3.00;99.90;;;;;;5122987;27;20046;-42
2022/12/14 12:18:00;;;;;;;34.90;21.35;;;-2.90;99.90;;;;;;5129000;27;20066;-40
2022/12/14 12:20:33;;;;;;;33.95;20.45;;;-2.90;99.90;;;;;;5112160;27;20062;-40
2022/12/14 12:23:13;;;;;;;34.03;20.63;;;-2.90;99.90;;;;;;5110165;27;20131;-40
2022/12/14 12:25:41;;;;;;;32.67;21.15;;;-2.80;99.90;;;;;;5139461;27;20083;-44
2022/12/14 12:28:27;;;;;;;35.42;22.65;;;-2.80;99.90;;;;;;5127397;27;20089;-43
2022/12/14 12:30:59;;;;;;;35.30;21.38;;;-2.70;99.90;;;;;;5103649;27;20626;-43
2022/12/14 12:33:31;;;;;;;35.63;21.42;;;-2.70;99.90;;;;;;5124770;27;20039;-41
2022/12/14 12:36:03;;;;;;;33.25;20.85;;;-2.60;99.90;;;;;;5128067;27;20042;-41
2022/12/14 12:38:47;;;;;;;32.30;20.42;;;-2.60;99.90;;;;;;5122373;27;20094;-42
2022/12/14 12:41:19;;;;;;;33.15;21.40;;;-2.50;99.90;;;;;;5118807;27;20437;-41
2022/12/14 12:43:59;;;;;;;38.17;22.27;;;-2.40;99.90;;;;;;5105382;27;20125;-43
2022/12/14 12:46:34;;;;;;;33.20;20.77;;;-2.40;99.90;;;;;;5125109;27;20039;-42
2022/12/14 12:49:11;;;;;;;36.58;22.80;;;-2.30;99.90;;;;;;5112150;27;20047;-44
2022/12/14 12:51:54;;;;;;;37.88;21.63;;;-2.30;99.90;;;;;;5120513;27;20069;-42
2022/12/14 12:54:40;;;;;;;36.30;22.03;;;-2.30;99.90;;;;;;5133332;27;20042;-44
2022/12/14 12:57:09;;;;;;;37.55;20.80;;;-2.20;99.90;;;;;;5117040;27;20552;-40
2022/12/14 12:59:45;;;;;;;37.33;22.45;;;-2.10;99.90;;;;;;5130273;27;20050;-41
2022/12/14 13:02:20;;;;;;;33.97;21.98;;;-2.00;99.90;;;;;;5109195;27;20047;-43
2022/12/14 13:04:50;;;;;;;39.83;20.95;;;-2.00;99.90;;;;;;5127348;27;20461;-40
2022/12/14 13:07:42;;;;;;;36.50;21.10;;;-2.00;99.90;;;;;;5113382;27;20421;-41